Time;durP1;ratioP1;P1;durP2;ratioP2;P2;SDS_P1;SDS_P2;PMS_P1;PMS_P2;Temp;Humidity;BMP_temperature;BMP_pressure;BME280_temperature;BME280_humidity;BME280_pressure;Samples;Min_cycle;Max_cycle;Signal;HPM_P1;HPM_P2
2023/11/22 00:00:10;;;;;;;10.45;7.18;;;9.20;88.30;;;;;;5002710;28;20061;-63
2023/11/22 00:02:37;;;;;;;8.43;6.63;;;9.20;88.30;;;;;;5000566;28;20568;-63
2023/11/22 00:05:03;;;;;;;9.48;6.70;;;9.10;88.30;;;;;;4999500;28;20069;-63
2023/11/22 00:07:29;;;;;;;8.35;6.80;;;9.10;88.30;;;;;;5003103;28;20592;-63
2023/11/22 00:09:55;;;;;;;9.95;7.20;;;9.10;88.30;;;;;;5003526;28;20052;-64
2023/11/22 00:12:22;;;;;;;11.02;7.32;;;9.10;88.40;;;;;;4999685;28;20052;-64
2023/11/22 00:14:48;;;;;;;9.70;7.03;;;9.10;88.50;;;;;;5002247;28;20154;-64
2023/11/22 00:17:17;;;;;;;11.27;7.32;;;9.10;88.60;;;;;;5002089;28;20117;-63
2023/11/22 00:19:44;;;;;;;8.80;7.07;;;9.10;88.60;;;;;;5001188;28;20061;-64
2023/11/22 00:22:14;;;;;;;10.45;7.25;;;9.10;88.70;;;;;;5003027;28;20292;-64
2023/11/22 00:24:40;;;;;;;9.85;7.15;;;9.10;89.60;;;;;;5000394;28;20042;-63
2023/11/22 00:27:10;;;;;;;9.57;7.03;;;9.10;89.00;;;;;;5002717;28;20092;-63
2023/11/22 00:29:36;;;;;;;11.45;7.68;;;9.10;89.00;;;;;;5003793;28;20472;-62
2023/11/22 00:32:01;;;;;;;9.40;7.13;;;9.10;88.90;;;;;;5002524;28;20038;-63
2023/11/22 00:34:27;;;;;;;8.98;6.90;;;9.10;88.80;;;;;;5001169;28;20093;-63
2023/11/22 00:36:53;;;;;;;8.70;6.38;;;9.20;88.90;;;;;;5004630;28;20038;-63
2023/11/22 00:39:19;;;;;;;9.73;7.03;;;9.20;88.90;;;;;;5001470;28;20049;-64
2023/11/22 00:41:45;;;;;;;11.38;7.25;;;9.20;88.90;;;;;;5002511;28;20465;-64
2023/11/22 00:44:11;;;;;;;8.52;6.35;;;9.20;88.90;;;;;;5003381;28;20096;-63
2023/11/22 00:46:40;;;;;;;8.40;6.70;;;9.20;88.80;;;;;;4998321;28;20085;-63
2023/11/22 00:49:05;;;;;;;10.20;7.50;;;9.20;88.80;;;;;;5000584;28;20026;-64
2023/11/22 00:51:32;;;;;;;10.30;7.05;;;9.30;89.00;;;;;;5002855;28;20072;-63
2023/11/22 00:53:59;;;;;;;9.85;7.05;;;9.20;88.70;;;;;;4999964;28;20515;-63
2023/11/22 00:56:24;;;;;;;10.80;7.78;;;9.20;88.70;;;;;;5000830;28;20506;-63
2023/11/22 00:58:50;;;;;;;11.18;7.53;;;9.30;88.70;;;;;;5003371;28;20045;-63
2023/11/22 01:01:18;;;;;;;12.48;8.02;;;9.20;88.60;;;;;;4996043;28;20101;-63
2023/11/22 01:03:43;;;;;;;11.90;8.00;;;9.20;88.60;;;;;;4999248;28;20116;-63
2023/11/22 01:06:09;;;;;;;12.70;7.72;;;9.20;88.60;;;;;;5000218;28;20030;-63
2023/11/22 01:08:35;;;;;;;10.90;7.80;;;9.20;88.60;;;;;;5000105;28;20493;-63
2023/11/22 01:11:03;;;;;;;10.35;7.35;;;9.20;88.80;;;;;;5000713;28;20417;-62
2023/11/22 01:13:29;;;;;;;9.88;7.10;;;9.20;88.80;;;;;;4998048;28;20132;-62
2023/11/22 01:15:55;;;;;;;9.15;6.88;;;9.20;89.00;;;;;;5001887;28;20041;-63
2023/11/22 01:18:21;;;;;;;10.80;7.60;;;9.20;89.00;;;;;;5004013;28;20034;-63
2023/11/22 01:20:46;;;;;;;10.07;7.65;;;9.20;89.20;;;;;;5000935;28;20042;-63
2023/11/22 01:23:12;;;;;;;12.38;7.97;;;9.20;89.20;;;;;;5001162;28;20044;-64
2023/11/22 01:25:38;;;;;;;10.77;7.63;;;9.20;89.30;;;;;;5002099;28;20413;-64
2023/11/22 01:28:03;;;;;;;8.82;7.35;;;9.20;89.00;;;;;;5002769;28;20494;-64
2023/11/22 01:30:29;;;;;;;10.18;7.82;;;9.30;89.10;;;;;;4997650;28;20144;-63
2023/11/22 01:32:55;;;;;;;11.57;7.75;;;9.30;89.10;;;;;;5001266;28;20045;-64
2023/11/22 01:35:21;;;;;;;10.00;7.15;;;9.30;89.10;;;;;;5000043;28;20394;-63
2023/11/22 01:37:46;;;;;;;9.43;7.45;;;9.30;89.00;;;;;;5002151;28;20124;-63
2023/11/22 01:40:12;;;;;;;12.57;7.63;;;9.30;89.00;;;;;;4999649;28;20117;-63
2023/11/22 01:42:40;;;;;;;11.00;7.22;;;9.30;88.90;;;;;;5001709;28;20069;-63
2023/11/22 01:45:07;;;;;;;11.68;7.28;;;9.30;88.90;;;;;;5001552;28;20038;-64
2023/11/22 01:47:34;;;;;;;11.13;7.43;;;9.40;88.90;;;;;;5002735;28;20034;-64
2023/11/22 01:49:59;;;;;;;10.70;7.43;;;9.40;88.90;;;;;;4999730;28;20030;-64
2023/11/22 01:52:26;;;;;;;9.88;7.55;;;9.30;88.80;;;;;;5004938;28;20045;-64
2023/11/22 01:54:51;;;;;;;12.57;8.05;;;9.40;88.90;;;;;;4986360;28;20505;-63
2023/11/22 01:57:17;;;;;;;9.95;7.05;;;9.30;88.80;;;;;;4997799;28;20035;-64
2023/11/22 01:59:45;;;;;;;13.85;7.85;;;9.40;89.00;;;;;;4982979;28;20518;-63
2023/11/22 02:02:10;;;;;;;10.82;7.72;;;9.40;89.00;;;;;;4987019;28;20072;-62
2023/11/22 02:04:36;;;;;;;10.25;7.35;;;9.40;89.00;;;;;;4980005;28;20430;-64
2023/11/22 02:07:02;;;;;;;12.68;8.20;;;9.30;88.80;;;;;;4992588;28;20034;-64
2023/11/22 02:09:27;;;;;;;10.98;7.65;;;9.30;88.90;;;;;;5004623;28;20144;-64
2023/11/22 02:11:53;;;;;;;13.82;8.10;;;9.30;88.90;;;;;;4999965;28;20045;-64
2023/11/22 02:14:19;;;;;;;10.13;6.93;;;9.30;88.80;;;;;;5005030;28;20083;-64
2023/11/22 02:16:45;;;;;;;11.07;7.60;;;9.30;89.00;;;;;;5004639;28;20370;-62
2023/11/22 02:19:17;;;;;;;10.57;7.78;;;9.30;89.00;;;;;;5003640;28;20072;-64
2023/11/22 02:21:44;;;;;;;11.10;7.78;;;9.20;89.20;;;;;;5002070;28;20038;-63
2023/11/22 02:24:10;;;;;;;10.60;7.63;;;9.20;89.20;;;;;;5005718;28;20061;-64
2023/11/22 02:26:36;;;;;;;11.10;7.95;;;9.20;89.30;;;;;;5000605;28;20383;-63
2023/11/22 02:29:04;;;;;;;11.63;7.75;;;9.20;89.30;;;;;;5003999;28;20050;-63
2023/11/22 02:31:30;;;;;;;11.68;8.07;;;9.20;89.40;;;;;;5000508;28;20493;-63
2023/11/22 02:33:55;;;;;;;11.88;8.18;;;9.20;89.50;;;;;;5003517;28;20046;-64
2023/11/22 02:36:22;;;;;;;10.80;7.90;;;9.20;89.60;;;;;;5003944;28;20030;-64
2023/11/22 02:38:48;;;;;;;10.43;7.95;;;9.10;89.60;;;;;;5001288;28;20049;-63
2023/11/22 02:41:13;;;;;;;11.57;8.30;;;9.10;89.60;;;;;;5002676;28;20493;-63
2023/11/22 02:43:41;;;;;;;9.65;7.80;;;9.10;89.70;;;;;;5003251;28;20473;-63
2023/11/22 02:46:08;;;;;;;10.30;8.27;;;9.00;89.50;;;;;;5000044;28;20026;-64
2023/11/22 02:48:33;;;;;;;10.27;7.85;;;9.00;89.70;;;;;;5002689;28;20130;-64
2023/11/22 02:50:59;;;;;;;12.50;8.30;;;8.90;89.80;;;;;;5002192;28;20112;-64
2023/11/22 02:53:25;;;;;;;13.18;8.60;;;9.00;90.00;;;;;;5003880;28;20410;-64
2023/11/22 02:55:50;;;;;;;7.15;5.88;;;8.90;90.10;;;;;;5004128;28;20048;-65
2023/11/22 02:58:17;;;;;;;5.35;3.55;;;8.80;90.20;;;;;;5000800;28;20038;-63
2023/11/22 03:00:42;;;;;;;6.47;3.85;;;8.80;90.10;;;;;;5000565;28;20058;-63
2023/11/22 03:03:10;;;;;;;3.85;3.53;;;8.70;90.40;;;;;;5001509;28;20636;-63
2023/11/22 03:05:39;;;;;;;4.95;4.10;;;8.70;89.80;;;;;;5003781;28;20042;-63
2023/11/22 03:08:07;;;;;;;4.75;4.25;;;8.60;89.70;;;;;;5002155;28;20081;-62
2023/11/22 03:10:33;;;;;;;4.70;4.05;;;8.60;89.50;;;;;;5000950;28;20038;-63
2023/11/22 03:12:58;;;;;;;4.50;3.78;;;8.60;89.50;;;;;;4983784;28;20045;-62
2023/11/22 03:15:24;;;;;;;4.93;4.15;;;8.50;89.70;;;;;;5001211;28;20030;-63
2023/11/22 03:17:50;;;;;;;5.25;3.80;;;8.40;89.70;;;;;;5000923;28;20046;-63
2023/11/22 03:20:16;;;;;;;4.90;3.60;;;8.50;89.80;;;;;;4998138;28;20060;-63
2023/11/22 03:22:43;;;;;;;4.25;3.83;;;8.40;89.70;;;;;;4997003;28;20141;-63
2023/11/22 03:25:10;;;;;;;4.15;3.60;;;8.40;89.70;;;;;;5003674;28;20050;-63
2023/11/22 03:27:37;;;;;;;4.28;3.63;;;8.30;89.50;;;;;;5000399;28;20073;-63
2023/11/22 03:30:04;;;;;;;6.43;3.83;;;8.30;89.60;;;;;;5004398;28;20515;-63
2023/11/22 03:32:29;;;;;;;5.65;4.57;;;8.20;89.50;;;;;;5003971;28;20026;-63
2023/11/22 03:34:57;;;;;;;5.53;4.50;;;8.20;89.50;;;;;;5003336;28;20040;-63
2023/11/22 03:37:23;;;;;;;5.07;4.30;;;8.10;89.50;;;;;;5004156;28;20041;-63
2023/11/22 03:39:48;;;;;;;3.42;3.00;;;8.10;89.50;;;;;;5006598;28;20096;-63
2023/11/22 03:42:17;;;;;;;2.10;1.60;;;8.10;89.60;;;;;;5005610;28;20030;-62
2023/11/22 03:44:43;;;;;;;1.30;1.20;;;8.10;89.50;;;;;;5006183;28;20070;-63
2023/11/22 03:47:13;;;;;;;0.90;0.90;;;8.00;89.20;;;;;;5005572;28;20164;-62
2023/11/22 03:49:39;;;;;;;0.80;0.80;;;7.90;88.90;;;;;;5006109;28;20565;-62
2023/11/22 03:52:05;;;;;;;2.47;1.08;;;7.80;88.90;;;;;;5006246;28;20038;-60
2023/11/22 03:54:32;;;;;;;0.88;0.88;;;7.80;88.80;;;;;;5005914;28;20609;-62
2023/11/22 03:57:01;;;;;;;1.10;1.00;;;7.70;89.00;;;;;;4972573;28;20398;-60
2023/11/22 03:59:27;;;;;;;2.70;1.08;;;7.60;89.20;;;;;;5004692;28;20088;-62
2023/11/22 04:01:53;;;;;;;0.88;0.88;;;7.50;89.20;;;;;;5006707;28;20030;-62
2023/11/22 04:04:20;;;;;;;1.92;1.27;;;7.50;89.30;;;;;;5006315;28;20045;-63
2023/11/22 04:06:45;;;;;;;0.90;0.90;;;7.30;89.50;;;;;;5005834;28;20512;-62
2023/11/22 04:09:14;;;;;;;1.40;1.15;;;7.30;89.90;;;;;;5006434;28;20125;-62
2023/11/22 04:11:40;;;;;;;1.27;1.17;;;7.30;90.00;;;;;;5006240;28;20294;-62
2023/11/22 04:14:06;;;;;;;1.40;1.30;;;7.30;90.10;;;;;;5006497;28;20030;-62
2023/11/22 04:16:31;;;;;;;1.95;1.52;;;7.30;90.00;;;;;;4985664;28;20132;-62
2023/11/22 04:18:57;;;;;;;1.50;1.40;;;7.30;90.10;;;;;;4996713;28;20034;-63
2023/11/22 04:21:24;;;;;;;1.50;1.40;;;7.30;90.10;;;;;;4996510;28;20065;-62
2023/11/22 04:23:49;;;;;;;1.60;1.45;;;7.30;90.10;;;;;;4999585;28;20509;-63
2023/11/22 04:26:15;;;;;;;8.50;3.30;;;7.30;90.10;;;;;;4997208;28;20278;-62
2023/11/22 04:28:42;;;;;;;5.47;2.90;;;7.30;90.00;;;;;;4998998;28;20042;-62
2023/11/22 04:31:08;;;;;;;4.05;2.47;;;7.30;89.90;;;;;;4996352;28;20046;-62
2023/11/22 04:33:34;;;;;;;2.92;2.35;;;7.30;89.60;;;;;;4998117;28;20048;-63
2023/11/22 04:36:00;;;;;;;2.40;2.20;;;7.30;89.50;;;;;;4997113;28;20611;-62
2023/11/22 04:38:26;;;;;;;2.55;2.35;;;7.20;89.30;;;;;;4997103;28;20550;-61
2023/11/22 04:40:52;;;;;;;2.70;2.50;;;7.20;89.30;;;;;;4996283;28;20030;-62
2023/11/22 04:43:17;;;;;;;2.90;2.70;;;7.20;89.30;;;;;;4999776;28;20042;-62
2023/11/22 04:45:43;;;;;;;4.35;2.88;;;7.10;89.20;;;;;;5000841;28;20034;-62
2023/11/22 04:48:09;;;;;;;3.15;2.78;;;7.10;89.20;;;;;;4996837;28;20420;-62
2023/11/22 04:50:35;;;;;;;4.47;3.00;;;7.10;89.20;;;;;;4993841;28;20042;-62
2023/11/22 04:53:01;;;;;;;4.70;3.40;;;7.10;89.30;;;;;;5002863;28;20049;-62
2023/11/22 04:55:28;;;;;;;3.70;3.30;;;7.10;89.30;;;;;;5005128;28;20239;-62
2023/11/22 04:57:54;;;;;;;3.47;3.17;;;7.10;89.30;;;;;;5005111;28;20083;-63
2023/11/22 05:00:22;;;;;;;3.58;3.28;;;7.00;89.20;;;;;;4997508;28;20130;-62
2023/11/22 05:02:48;;;;;;;3.75;3.35;;;7.00;89.40;;;;;;5000078;28;20037;-63
2023/11/22 05:05:14;;;;;;;3.55;3.05;;;7.00;89.40;;;;;;5000153;28;20678;-62
2023/11/22 05:07:39;;;;;;;4.45;3.53;;;7.00;89.50;;;;;;4999511;28;20103;-62
2023/11/22 05:10:08;;;;;;;4.22;3.80;;;7.00;89.50;;;;;;5003555;28;20064;-62
2023/11/22 05:12:33;;;;;;;3.80;3.40;;;7.00;89.50;;;;;;5003211;28;20038;-62
2023/11/22 05:14:59;;;;;;;4.40;3.88;;;6.90;89.30;;;;;;5003472;28;20037;-63
2023/11/22 05:17:24;;;;;;;6.25;3.92;;;7.00;89.40;;;;;;5004547;28;20430;-62
2023/11/22 05:19:51;;;;;;;4.90;3.67;;;7.00;89.60;;;;;;5004690;28;20117;-63
2023/11/22 05:22:16;;;;;;;5.00;3.92;;;7.00;89.60;;;;;;5005397;28;20069;-63
2023/11/22 05:24:42;;;;;;;5.30;4.10;;;6.90;89.60;;;;;;5004756;28;20061;-62
2023/11/22 05:27:08;;;;;;;5.88;4.55;;;7.00;89.70;;;;;;5007927;28;20042;-62
2023/11/22 05:29:34;;;;;;;4.60;4.03;;;7.00;89.70;;;;;;5008280;28;20042;-62
2023/11/22 05:32:02;;;;;;;4.88;4.32;;;7.00;89.60;;;;;;5009107;28;20034;-62
2023/11/22 05:34:28;;;;;;;4.80;4.03;;;7.00;89.50;;;;;;5008884;28;20398;-62
2023/11/22 05:36:54;;;;;;;4.53;3.90;;;7.00;89.50;;;;;;5009388;28;20034;-60
2023/11/22 05:39:22;;;;;;;5.53;4.32;;;6.90;89.60;;;;;;5009584;28;20045;-61
2023/11/22 05:41:48;;;;;;;4.40;4.00;;;6.90;89.60;;;;;;5009513;28;20080;-62
2023/11/22 05:44:14;;;;;;;5.00;4.18;;;7.00;89.70;;;;;;5009462;28;20030;-61
2023/11/22 05:46:39;;;;;;;7.10;4.85;;;7.00;89.70;;;;;;5008137;28;20397;-62
2023/11/22 05:49:05;;;;;;;7.78;6.25;;;7.00;89.70;;;;;;5009264;28;20030;-61
2023/11/22 05:51:31;;;;;;;9.82;6.85;;;7.00;89.60;;;;;;5008687;28;20137;-62
2023/11/22 05:53:56;;;;;;;10.00;7.03;;;7.00;89.50;;;;;;5009666;28;20076;-62
2023/11/22 05:56:22;;;;;;;8.23;6.68;;;7.00;89.40;;;;;;5008931;28;20489;-63
2023/11/22 05:58:48;;;;;;;8.73;6.00;;;7.00;89.30;;;;;;5008085;28;20121;-62
2023/11/22 06:01:14;;;;;;;6.05;5.28;;;6.90;89.30;;;;;;5008110;28;20144;-63
2023/11/22 06:03:39;;;;;;;6.68;5.45;;;6.90;89.20;;;;;;5008848;28;20022;-62
2023/11/22 06:06:06;;;;;;;9.18;5.95;;;6.90;89.20;;;;;;5009362;28;20117;-61
2023/11/22 06:08:32;;;;;;;7.82;6.03;;;6.80;89.00;;;;;;5007637;28;20041;-63
2023/11/22 06:10:59;;;;;;;7.70;6.05;;;6.80;88.90;;;;;;5008741;28;20089;-62
2023/11/22 06:13:25;;;;;;;8.38;6.53;;;6.70;89.00;;;;;;5009253;28;20406;-62
2023/11/22 06:15:50;;;;;;;10.43;6.70;;;6.70;89.00;;;;;;5007084;28;20228;-61
2023/11/22 06:18:16;;;;;;;9.25;6.85;;;6.60;88.90;;;;;;5008631;28;20034;-62
2023/11/22 06:20:42;;;;;;;8.93;6.43;;;6.60;89.00;;;;;;5007440;28;20099;-61
2023/11/22 06:23:08;;;;;;;9.90;7.20;;;6.50;89.10;;;;;;5008405;28;20101;-62
2023/11/22 06:25:35;;;;;;;8.73;6.65;;;6.50;89.10;;;;;;5009117;28;20179;-63
2023/11/22 06:28:02;;;;;;;8.23;6.45;;;6.40;89.10;;;;;;5008108;28;20041;-62
2023/11/22 06:30:27;;;;;;;9.90;6.75;;;6.40;89.10;;;;;;5007533;28;20068;-61
2023/11/22 06:32:53;;;;;;;9.07;6.55;;;6.30;89.10;;;;;;5008707;28;20063;-63
2023/11/22 06:35:19;;;;;;;9.55;6.45;;;6.30;89.30;;;;;;5008297;28;20629;-63
2023/11/22 06:37:45;;;;;;;8.27;6.22;;;6.30;89.40;;;;;;5007875;28;20074;-62
2023/11/22 06:40:14;;;;;;;10.73;7.18;;;6.20;89.40;;;;;;5008464;28;20037;-63
2023/11/22 06:42:43;;;;;;;8.82;6.60;;;6.20;89.50;;;;;;5007423;28;20030;-62
2023/11/22 06:45:15;;;;;;;10.25;6.75;;;6.20;89.60;;;;;;5008147;28;20030;-61
2023/11/22 06:47:44;;;;;;;11.95;7.07;;;6.20;89.60;;;;;;5007669;28;20037;-63
2023/11/22 06:50:10;;;;;;;10.95;6.95;;;6.10;89.40;;;;;;5008341;28;20502;-62
2023/11/22 06:52:38;;;;;;;12.07;7.90;;;6.10;89.40;;;;;;5007615;28;20041;-64
2023/11/22 06:55:04;;;;;;;12.48;7.72;;;6.10;89.40;;;;;;5008068;28;20374;-63
2023/11/22 06:57:30;;;;;;;11.27;8.05;;;6.10;89.30;;;;;;4998305;28;20405;-62
2023/11/22 06:59:58;;;;;;;13.75;8.45;;;6.00;89.30;;;;;;5007650;28;20049;-63
2023/11/22 07:02:24;;;;;;;11.77;8.65;;;6.00;88.90;;;;;;5006028;28;20042;-63
2023/11/22 07:04:50;;;;;;;11.18;8.32;;;5.90;89.00;;;;;;5008033;28;20620;-64
2023/11/22 07:07:15;;;;;;;13.05;8.75;;;5.80;89.10;;;;;;5007763;28;20041;-60
2023/11/22 07:09:44;;;;;;;12.23;7.30;;;5.80;89.20;;;;;;5007632;28;20579;-61
2023/11/22 07:12:10;;;;;;;11.27;7.25;;;5.70;89.30;;;;;;5007461;28;20036;-63
2023/11/22 07:14:36;;;;;;;10.73;7.35;;;5.70;89.30;;;;;;4989490;28;20026;-63
2023/11/22 07:17:02;;;;;;;12.10;6.93;;;5.60;89.30;;;;;;5006150;28;20441;-62
2023/11/22 07:19:28;;;;;;;10.77;7.22;;;5.60;89.00;;;;;;5004832;28;20048;-63
2023/11/22 07:21:54;;;;;;;10.80;7.10;;;5.60;89.10;;;;;;5006998;28;20030;-63
2023/11/22 07:24:19;;;;;;;9.88;7.00;;;5.50;89.10;;;;;;5005826;28;20026;-64
2023/11/22 07:26:45;;;;;;;9.82;7.13;;;5.50;89.10;;;;;;5003459;28;20077;-63
2023/11/22 07:29:11;;;;;;;9.98;6.80;;;5.40;88.90;;;;;;5003635;28;20038;-63
2023/11/22 07:31:38;;;;;;;8.93;6.38;;;5.40;88.90;;;;;;5005167;28;20033;-63
2023/11/22 07:34:04;;;;;;;8.70;6.40;;;5.30;88.90;;;;;;5006729;28;20030;-63
2023/11/22 07:36:30;;;;;;;8.13;6.18;;;5.30;88.90;;;;;;5003623;28;20374;-61
2023/11/22 07:38:56;;;;;;;9.77;6.80;;;5.20;88.90;;;;;;5004342;28;20034;-62
2023/11/22 07:41:22;;;;;;;9.52;5.80;;;5.20;89.10;;;;;;5005748;28;20034;-63
2023/11/22 07:43:48;;;;;;;8.27;5.85;;;5.20;88.70;;;;;;5003940;28;20080;-63
2023/11/22 07:46:13;;;;;;;11.70;5.90;;;5.10;88.60;;;;;;5004889;28;20032;-64
2023/11/22 07:48:40;;;;;;;10.63;6.07;;;5.10;88.90;;;;;;5003132;28;20061;-63
2023/11/22 07:51:07;;;;;;;7.88;5.80;;;5.00;89.30;;;;;;5004641;28;20029;-63
2023/11/22 07:53:36;;;;;;;11.68;6.03;;;5.00;89.40;;;;;;5005083;28;20030;-63
2023/11/22 07:56:04;;;;;;;11.55;6.28;;;5.00;89.10;;;;;;5003566;28;20034;-62
2023/11/22 07:58:31;;;;;;;7.05;5.50;;;5.00;89.10;;;;;;5001428;28;20334;-61
2023/11/22 08:00:58;;;;;;;7.25;5.80;;;4.90;89.10;;;;;;5005450;28;20038;-62
2023/11/22 08:03:25;;;;;;;7.90;6.00;;;4.90;89.20;;;;;;5004485;28;20137;-63
2023/11/22 08:05:53;;;;;;;9.63;6.30;;;4.90;88.90;;;;;;5004691;28;20061;-63
2023/11/22 08:08:19;;;;;;;7.45;5.90;;;4.90;88.20;;;;;;5003963;28;20395;-62
2023/11/22 08:10:47;;;;;;;9.65;5.80;;;4.80;87.90;;;;;;5001136;28;20046;-63
2023/11/22 08:13:13;;;;;;;9.07;6.03;;;4.80;88.10;;;;;;5004386;28;20033;-63
2023/11/22 08:15:39;;;;;;;6.75;5.60;;;4.80;88.30;;;;;;5003083;28;20042;-62
2023/11/22 08:18:05;;;;;;;7.32;5.38;;;4.70;88.20;;;;;;5003370;28;20508;-63
2023/11/22 08:20:31;;;;;;;6.00;4.82;;;4.70;87.90;;;;;;5003792;28;20038;-63
2023/11/22 08:22:57;;;;;;;6.85;5.40;;;4.70;87.40;;;;;;5004109;28;20038;-63
2023/11/22 08:25:22;;;;;;;6.22;4.97;;;4.60;87.60;;;;;;5005854;28;20408;-63
2023/11/22 08:27:49;;;;;;;6.75;4.40;;;4.60;87.90;;;;;;5003051;28;20034;-63
2023/11/22 08:30:15;;;;;;;4.28;3.85;;;4.60;88.20;;;;;;5003985;28;20108;-62
2023/11/22 08:32:48;;;;;;;5.93;4.18;;;4.60;87.60;;;;;;5003445;28;20535;-62
2023/11/22 08:35:15;;;;;;;3.70;3.35;;;4.50;86.60;;;;;;5003996;28;20405;-62
2023/11/22 08:37:41;;;;;;;4.70;3.58;;;4.50;87.30;;;;;;5003983;28;20632;-63
2023/11/22 08:40:18;;;;;;;4.25;3.38;;;4.50;87.50;;;;;;5002636;28;20068;-63
2023/11/22 08:42:43;;;;;;;5.40;3.55;;;4.50;87.50;;;;;;5003468;28;20034;-63
2023/11/22 08:45:11;;;;;;;3.92;3.25;;;4.50;87.50;;;;;;5004438;28;20034;-62
2023/11/22 08:47:39;;;;;;;4.43;3.72;;;4.50;87.70;;;;;;4986375;28;20053;-62
2023/11/22 08:50:06;;;;;;;5.75;3.97;;;4.50;87.70;;;;;;5000864;28;20121;-62
2023/11/22 08:52:32;;;;;;;3.53;3.20;;;4.50;87.70;;;;;;5003066;28;20121;-61
2023/11/22 08:54:57;;;;;;;4.10;3.30;;;4.60;87.30;;;;;;5003695;28;20121;-61
2023/11/22 08:57:23;;;;;;;3.72;2.97;;;4.60;87.10;;;;;;4984573;28;20419;-63
2023/11/22 08:59:48;;;;;;;4.18;3.00;;;4.50;86.60;;;;;;5004866;28;20053;-62
2023/11/22 09:02:15;;;;;;;3.97;3.20;;;4.60;86.60;;;;;;5006009;28;20038;-62
2023/11/22 09:04:41;;;;;;;4.80;3.63;;;4.60;86.20;;;;;;5008134;28;20036;-63
2023/11/22 09:07:07;;;;;;;5.10;4.10;;;4.60;86.50;;;;;;5009537;28;20038;-63
2023/11/22 09:09:34;;;;;;;4.55;3.80;;;4.60;86.30;;;;;;5008218;28;20041;-63
2023/11/22 09:12:01;;;;;;;5.03;4.03;;;4.60;86.00;;;;;;5006552;28;20041;-62
2023/11/22 09:14:26;;;;;;;5.20;3.90;;;4.60;86.00;;;;;;5007812;28;20057;-62
2023/11/22 09:16:55;;;;;;;5.15;3.75;;;4.60;85.60;;;;;;4984617;28;20073;-63
2023/11/22 09:19:24;;;;;;;4.03;3.45;;;4.60;86.10;;;;;;5009198;28;20037;-61
2023/11/22 09:21:51;;;;;;;5.47;3.95;;;4.60;86.80;;;;;;5008054;28;20073;-63
2023/11/22 09:24:17;;;;;;;4.10;3.20;;;4.60;85.80;;;;;;5009879;28;20033;-62
2023/11/22 09:26:43;;;;;;;4.20;3.60;;;4.60;85.50;;;;;;5005130;28;20524;-63
2023/11/22 09:29:13;;;;;;;4.47;3.75;;;4.60;86.00;;;;;;5009256;28;20564;-62
2023/11/22 09:31:39;;;;;;;3.90;3.47;;;4.60;86.70;;;;;;5008699;28;20030;-63
2023/11/22 09:34:04;;;;;;;5.50;3.60;;;4.70;86.10;;;;;;5008789;28;20465;-62
2023/11/22 09:36:33;;;;;;;5.10;3.78;;;4.70;86.00;;;;;;5006089;28;20034;-63
2023/11/22 09:38:59;;;;;;;4.32;3.67;;;4.70;86.40;;;;;;5007189;28;20061;-63
2023/11/22 09:41:27;;;;;;;4.53;3.78;;;4.70;85.90;;;;;;5007867;28;20046;-63
2023/11/22 09:43:53;;;;;;;5.53;4.00;;;4.70;86.10;;;;;;5003737;28;20934;-63
2023/11/22 09:46:22;;;;;;;5.93;4.00;;;4.80;86.10;;;;;;5007816;28;20149;-63
2023/11/22 09:48:52;;;;;;;4.20;3.80;;;4.80;85.80;;;;;;5008287;28;20042;-63
2023/11/22 09:51:23;;;;;;;4.88;3.65;;;4.80;84.70;;;;;;5007140;28;20049;-62
2023/11/22 09:54:04;;;;;;;3.95;3.55;;;4.80;85.10;;;;;;5007276;28;20172;-62
2023/11/22 09:56:32;;;;;;;3.90;3.47;;;4.80;85.30;;;;;;5006830;28;20046;-64
2023/11/22 09:59:00;;;;;;;4.35;3.60;;;4.90;85.40;;;;;;5007414;28;20035;-63
2023/11/22 10:01:36;;;;;;;4.50;3.92;;;4.90;85.40;;;;;;5007550;28;20999;-63
2023/11/22 10:04:05;;;;;;;6.65;3.53;;;4.90;85.30;;;;;;5008295;28;20072;-62
2023/11/22 10:06:34;;;;;;;4.15;3.70;;;4.90;85.40;;;;;;5005395;28;20049;-63
2023/11/22 10:09:01;;;;;;;4.10;3.70;;;5.00;85.60;;;;;;5007593;28;20045;-63
2023/11/22 10:11:28;;;;;;;5.13;4.20;;;5.10;85.50;;;;;;5005408;28;20054;-63
2023/11/22 10:13:54;;;;;;;5.82;4.75;;;5.00;85.40;;;;;;5007969;28;20120;-61
2023/11/22 10:16:20;;;;;;;6.05;4.57;;;5.10;85.40;;;;;;5007023;28;20125;-63
2023/11/22 10:18:47;;;;;;;6.65;4.60;;;5.10;85.40;;;;;;5006310;28;20861;-62
2023/11/22 10:21:28;;;;;;;9.65;5.28;;;5.10;85.40;;;;;;5007920;28;20529;-63
2023/11/22 10:23:56;;;;;;;6.47;5.13;;;5.20;85.30;;;;;;5007689;28;20112;-63
2023/11/22 10:26:23;;;;;;;5.78;5.05;;;5.20;85.30;;;;;;5006921;28;20057;-63
2023/11/22 10:28:52;;;;;;;5.70;4.65;;;5.20;85.10;;;;;;5007194;28;20823;-62
2023/11/22 10:31:19;;;;;;;6.72;5.18;;;5.20;84.90;;;;;;5007901;28;20520;-63
2023/11/22 10:33:45;;;;;;;8.07;5.18;;;5.30;85.20;;;;;;5004110;28;20038;-63
2023/11/22 10:36:12;;;;;;;5.63;4.85;;;5.30;85.00;;;;;;5006899;28;20034;-63
2023/11/22 10:38:37;;;;;;;6.00;4.75;;;5.30;84.90;;;;;;5005383;28;20556;-63
2023/11/22 10:41:05;;;;;;;7.13;4.85;;;5.30;84.90;;;;;;5008508;28;20109;-63
2023/11/22 10:43:34;;;;;;;5.28;4.50;;;5.30;84.90;;;;;;4987990;28;20033;-63
2023/11/22 10:46:02;;;;;;;7.32;5.35;;;5.30;85.10;;;;;;4994838;28;20084;-63
2023/11/22 10:48:29;;;;;;;11.60;6.03;;;5.40;85.10;;;;;;5003706;28;20129;-64
2023/11/22 10:50:56;;;;;;;7.55;5.50;;;5.40;84.90;;;;;;5007266;28;20378;-63
2023/11/22 10:53:32;;;;;;;6.68;5.18;;;5.40;84.80;;;;;;5005911;28;20441;-63
2023/11/22 10:56:11;;;;;;;6.88;5.18;;;5.40;84.60;;;;;;5004248;28;20353;-63
2023/11/22 10:58:48;;;;;;;6.88;5.20;;;5.40;84.70;;;;;;5005306;28;20034;-63
2023/11/22 11:01:19;;;;;;;7.03;5.13;;;5.40;84.70;;;;;;5007364;28;20036;-64
2023/11/22 11:03:57;;;;;;;7.53;5.35;;;5.40;84.70;;;;;;5007368;28;20030;-62
2023/11/22 11:06:33;;;;;;;6.72;5.25;;;5.30;84.40;;;;;;5004651;28;20034;-63
2023/11/22 11:09:08;;;;;;;6.90;5.47;;;5.40;84.60;;;;;;5008419;28;20112;-62
2023/11/22 11:11:36;;;;;;;7.63;5.72;;;5.40;84.30;;;;;;5004773;28;20030;-62
2023/11/22 11:14:07;;;;;;;6.95;5.43;;;5.40;84.40;;;;;;5006394;28;20422;-62
2023/11/22 11:16:37;;;;;;;8.45;5.53;;;5.40;84.40;;;;;;5006252;28;20444;-61
2023/11/22 11:19:07;;;;;;;6.53;5.28;;;5.40;84.40;;;;;;5006227;28;20034;-61
2023/11/22 11:21:33;;;;;;;6.05;5.40;;;5.40;84.30;;;;;;5006396;28;20044;-61
2023/11/22 11:24:02;;;;;;;6.45;5.00;;;5.40;84.60;;;;;;5005453;28;20623;-61
2023/11/22 11:26:31;;;;;;;6.18;4.78;;;5.40;84.50;;;;;;5006008;28;20064;-62
2023/11/22 11:28:57;;;;;;;10.77;4.97;;;5.40;84.10;;;;;;5005197;28;20045;-61
2023/11/22 11:31:23;;;;;;;7.63;5.03;;;5.40;83.90;;;;;;5005161;28;20038;-62
2023/11/22 11:33:48;;;;;;;6.18;5.03;;;5.40;83.40;;;;;;5006954;28;20096;-61
2023/11/22 11:36:25;;;;;;;6.00;4.78;;;5.40;83.50;;;;;;5006415;28;20160;-61
2023/11/22 11:39:03;;;;;;;7.53;4.75;;;5.40;83.00;;;;;;4988021;28;20045;-61
2023/11/22 11:41:33;;;;;;;6.20;5.03;;;5.30;82.30;;;;;;5005383;28;20030;-62
2023/11/22 11:44:01;;;;;;;6.28;4.68;;;5.30;82.80;;;;;;5004978;28;20084;-61
2023/11/22 11:46:29;;;;;;;7.35;5.07;;;5.30;83.30;;;;;;5006050;28;20038;-61
2023/11/22 11:48:58;;;;;;;6.97;5.22;;;5.30;83.30;;;;;;5004926;28;20042;-61
2023/11/22 11:51:25;;;;;;;7.35;5.05;;;5.20;83.20;;;;;;5006287;28;20091;-61
2023/11/22 11:53:51;;;;;;;9.88;5.63;;;5.20;82.90;;;;;;5004915;28;20045;-62
2023/11/22 11:56:17;;;;;;;7.38;5.60;;;5.20;82.90;;;;;;5004794;28;20034;-61
2023/11/22 11:58:44;;;;;;;6.60;5.40;;;5.20;82.30;;;;;;5004647;28;20042;-62
2023/11/22 12:01:12;;;;;;;6.00;5.13;;;5.10;82.90;;;;;;5006266;28;20066;-61
2023/11/22 12:03:38;;;;;;;8.93;5.30;;;5.10;83.20;;;;;;5005986;28;20091;-61
2023/11/22 12:06:07;;;;;;;6.70;5.45;;;5.10;83.30;;;;;;5006342;28;20405;-61
2023/11/22 12:08:36;;;;;;;6.30;5.13;;;5.10;82.80;;;;;;5003522;28;20524;-62
2023/11/22 12:11:08;;;;;;;8.55;5.03;;;5.10;82.50;;;;;;5004205;28;21648;-60
2023/11/22 12:13:34;;;;;;;7.50;5.30;;;5.10;82.80;;;;;;5006058;28;20084;-60
2023/11/22 12:16:05;;;;;;;5.43;4.72;;;5.10;83.00;;;;;;5005603;28;20350;-61
2023/11/22 12:18:40;;;;;;;4.88;4.38;;;5.10;83.20;;;;;;5004487;28;20034;-62
2023/11/22 12:21:06;;;;;;;5.20;4.68;;;5.10;83.00;;;;;;5006423;28;20401;-62
2023/11/22 12:23:32;;;;;;;6.40;4.82;;;5.10;83.20;;;;;;5004666;28;20092;-61
2023/11/22 12:25:58;;;;;;;6.25;5.13;;;5.20;82.00;;;;;;5005081;28;20033;-62
2023/11/22 12:28:28;;;;;;;7.82;5.07;;;5.10;81.20;;;;;;5004591;28;20033;-62
2023/11/22 12:30:54;;;;;;;5.60;5.00;;;5.00;81.20;;;;;;5004913;28;20457;-61
2023/11/22 12:33:21;;;;;;;6.47;5.60;;;5.00;81.20;;;;;;5004135;28;20405;-61
2023/11/22 12:35:48;;;;;;;6.05;5.25;;;5.00;82.00;;;;;;5004589;28;20067;-62
2023/11/22 12:38:14;;;;;;;5.45;4.95;;;4.90;82.40;;;;;;5006024;28;20121;-61
2023/11/22 12:40:46;;;;;;;6.65;5.35;;;4.90;82.10;;;;;;5002713;28;20478;-61
2023/11/22 12:43:14;;;;;;;8.50;5.60;;;4.90;82.10;;;;;;5005238;28;20452;-62
2023/11/22 12:45:40;;;;;;;6.55;5.47;;;4.90;82.60;;;;;;5004084;28;20069;-60
2023/11/22 12:48:25;;;;;;;7.85;5.43;;;4.90;82.60;;;;;;5005481;28;20497;-62
2023/11/22 12:50:52;;;;;;;8.52;5.07;;;4.90;81.80;;;;;;5004549;28;20097;-62
2023/11/22 12:53:21;;;;;;;6.38;5.25;;;4.90;82.50;;;;;;5003959;28;20037;-62